Time;durP1;ratioP1;P1;durP2;ratioP2;P2;SDS_P1;SDS_P2;PMS_P1;PMS_P2;Temp;Humidity;BMP_temperature;BMP_pressure;BME280_temperature;BME280_humidity;BME280_pressure;Samples;Min_cycle;Max_cycle;Signal;HPM_P1;HPM_P2
2023/03/14 00:01:52;;;;;;;18.40;2.88;;;;;;;11.50;100.00;98884.09;5034188;28;20025;-55
2023/03/14 00:04:18;;;;;;;17.20;3.20;;;;;;;11.48;100.00;98877.22;5033490;28;20026;-55
2023/03/14 00:06:43;;;;;;;20.48;3.92;;;;;;;11.56;100.00;98882.81;5037484;28;20040;-56
2023/03/14 00:09:09;;;;;;;16.52;3.17;;;;;;;11.63;100.00;98886.69;5032582;28;20044;-57
2023/03/14 00:11:34;;;;;;;19.27;3.45;;;;;;;11.59;100.00;98895.78;5046241;28;20044;-60
2023/03/14 00:13:59;;;;;;;24.98;3.33;;;;;;;11.54;100.00;98881.22;5044940;28;20021;-57
2023/03/14 00:16:25;;;;;;;15.98;2.63;;;;;;;11.54;100.00;98892.63;5047286;28;20539;-56
2023/03/14 00:18:50;;;;;;;13.13;2.65;;;;;;;11.57;100.00;98878.38;5046656;28;20559;-58
2023/03/14 00:21:16;;;;;;;12.15;3.10;;;;;;;11.53;100.00;98890.09;5047049;28;20048;-56
2023/03/14 00:23:42;;;;;;;15.88;3.40;;;;;;;11.46;100.00;98893.16;5046393;28;20052;-56
2023/03/14 00:26:18;;;;;;;11.00;2.05;;;;;;;11.38;100.00;98904.22;5035786;28;20025;-57
2023/03/14 00:28:44;;;;;;;20.00;2.40;;;;;;;11.34;100.00;98881.66;5046315;28;20526;-57
2023/03/14 00:31:12;;;;;;;9.20;2.20;;;;;;;11.32;100.00;98903.81;5045359;28;20036;-57
2023/03/14 00:33:37;;;;;;;19.58;2.22;;;;;;;11.24;100.00;98868.28;5047549;28;20054;-56
2023/03/14 00:36:06;;;;;;;11.55;2.75;;;;;;;11.25;100.00;98874.38;5054962;28;20699;-57
2023/03/14 00:38:32;;;;;;;13.93;2.63;;;;;;;11.33;100.00;98885.25;5067693;28;20056;-57
2023/03/14 00:40:57;;;;;;;13.18;2.45;;;;;;;11.11;100.00;98888.50;5057801;28;20048;-57
2023/03/14 00:43:23;;;;;;;24.90;3.42;;;;;;;11.07;100.00;98906.31;5051218;28;20029;-56
2023/03/14 00:45:49;;;;;;;17.17;3.65;;;;;;;11.03;100.00;98893.44;5049609;28;20079;-57
2023/03/14 00:48:15;;;;;;;18.10;2.80;;;;;;;11.02;100.00;98894.41;5050061;28;20083;-57
2023/03/14 00:50:40;;;;;;;18.25;2.85;;;;;;;10.97;100.00;98884.16;5031606;28;20021;-54
2023/03/14 00:53:05;;;;;;;24.10;3.22;;;;;;;11.04;100.00;98901.25;5050016;28;20028;-55
2023/03/14 00:55:31;;;;;;;16.70;3.33;;;;;;;11.02;100.00;98897.88;5049285;28;20041;-56
2023/03/14 00:57:56;;;;;;;23.02;2.90;;;;;;;10.96;100.00;98917.56;5049557;28;20565;-55
2023/03/14 01:00:22;;;;;;;13.95;2.65;;;;;;;11.04;100.00;98911.78;5049826;28;20025;-56
2023/03/14 01:02:47;;;;;;;16.30;3.08;;;;;;;10.99;100.00;98913.91;5049949;28;20021;-56
2023/03/14 01:05:13;;;;;;;15.45;3.40;;;;;;;10.97;100.00;98914.00;5049832;28;20035;-58
2023/03/14 01:07:38;;;;;;;21.25;2.72;;;;;;;10.90;100.00;98896.06;5048581;28;20124;-57
2023/03/14 01:10:05;;;;;;;14.50;3.30;;;;;;;10.93;100.00;98901.13;5032900;28;20025;-57
2023/03/14 01:12:31;;;;;;;16.92;2.92;;;;;;;10.89;100.00;98891.75;5048310;28;20128;-56
2023/03/14 01:14:56;;;;;;;14.93;2.70;;;;;;;10.90;100.00;98885.53;5050178;28;20120;-57
2023/03/14 01:17:22;;;;;;;17.10;3.35;;;;;;;10.76;100.00;98887.28;5048624;28;20079;-59
2023/03/14 01:19:47;;;;;;;15.32;3.05;;;;;;;10.83;100.00;98882.44;5050471;28;20032;-57
2023/03/14 01:22:13;;;;;;;14.00;2.50;;;;;;;10.79;100.00;98876.53;5049498;28;20029;-57
2023/03/14 01:24:38;;;;;;;19.15;3.25;;;;;;;10.85;100.00;98885.81;5050172;28;20082;-58
2023/03/14 01:27:03;;;;;;;16.13;3.10;;;;;;;10.91;100.00;98887.19;5048518;28;20025;-58
2023/03/14 01:29:29;;;;;;;20.23;2.92;;;;;;;10.92;100.00;98894.16;5048964;28;20116;-56
2023/03/14 01:31:55;;;;;;;17.20;2.92;;;;;;;10.83;100.00;98904.38;5049662;28;20029;-55
2023/03/14 01:34:20;;;;;;;20.67;2.97;;;;;;;10.83;100.00;98880.66;5048775;28;20032;-59
2023/03/14 01:36:45;;;;;;;16.55;2.72;;;;;;;10.92;100.00;98902.06;5050056;28;20048;-56
2023/03/14 01:39:11;;;;;;;12.57;2.40;;;;;;;10.89;100.00;98897.03;5048603;28;20040;-57
2023/03/14 01:41:36;;;;;;;18.95;3.00;;;;;;;10.85;100.00;98886.69;5049456;28;20029;-54
2023/03/14 01:44:01;;;;;;;16.90;2.75;;;;;;;10.87;100.00;98884.78;5048478;28;20021;-59
2023/03/14 01:46:41;;;;;;;10.00;1.88;;;;;;;10.78;100.00;98874.00;5049630;28;20025;-58
2023/03/14 01:49:11;;;;;;;18.08;3.40;;;;;;;10.71;100.00;98873.56;5042243;28;20450;-59
2023/03/14 01:51:46;;;;;;;16.00;2.40;;;;;;;10.61;100.00;98879.47;5046393;28;20028;-54
2023/03/14 01:54:22;;;;;;;15.75;2.83;;;;;;;10.79;100.00;98870.41;5048392;28;20032;-53
2023/03/14 01:56:53;;;;;;;12.25;3.13;;;;;;;10.85;100.00;98876.16;5048265;28;20029;-53
2023/03/14 01:59:18;;;;;;;14.20;2.22;;;;;;;10.81;100.00;98877.28;5024763;28;20068;-57
2023/03/14 02:01:46;;;;;;;10.10;2.22;;;;;;;10.96;100.00;98866.66;5049227;28;20056;-56
2023/03/14 02:04:13;;;;;;;14.30;2.53;;;;;;;10.84;100.00;98873.59;5042352;28;20422;-56
2023/03/14 02:07:03;;;;;;;21.30;3.22;;;;;;;10.84;100.00;98861.25;5028195;28;20025;-60
2023/03/14 02:09:28;;;;;;;14.68;2.92;;;;;;;10.87;100.00;98852.31;5013709;28;20156;-55
2023/03/14 02:11:54;;;;;;;13.55;2.60;;;;;;;10.98;100.00;98849.81;5034405;28;20116;-58
2023/03/14 02:14:31;;;;;;;14.45;2.47;;;;;;;10.95;100.00;98849.16;5030747;28;20033;-56
2023/03/14 02:16:57;;;;;;;14.90;2.50;;;;;;;10.97;100.00;98847.28;5048486;28;20099;-56
2023/03/14 02:20:05;;;;;;;11.30;3.22;;;;;;;10.86;100.00;98835.66;5026340;28;20510;-58
2023/03/14 02:22:30;;;;;;;9.40;1.75;;;;;;;10.91;100.00;98837.13;5016183;28;20029;-55
2023/03/14 02:25:07;;;;;;;9.82;2.10;;;;;;;10.88;100.00;98840.84;5027263;28;20044;-56
2023/03/14 02:27:32;;;;;;;10.82;1.85;;;;;;;10.87;100.00;98834.72;5030708;28;20025;-56
2023/03/14 02:30:04;;;;;;;14.23;2.80;;;;;;;10.95;100.00;98834.19;5045704;28;20534;-55
2023/03/14 02:32:32;;;;;;;14.82;2.13;;;;;;;10.83;100.00;98829.75;5048264;28;20052;-57
2023/03/14 02:34:59;;;;;;;14.63;2.70;;;;;;;10.91;100.00;98839.78;5047929;28;20044;-56
2023/03/14 02:37:48;;;;;;;12.45;2.50;;;;;;;10.91;100.00;98842.41;5030053;28;20166;-57
2023/03/14 02:40:14;;;;;;;9.45;1.70;;;;;;;10.73;100.00;98843.56;5047205;28;20692;-56
2023/03/14 02:42:40;;;;;;;11.23;2.05;;;;;;;10.82;100.00;98834.19;5045647;28;20064;-55
2023/03/14 02:45:08;;;;;;;13.93;2.10;;;;;;;10.67;100.00;98843.97;5035660;28;20092;-58
2023/03/14 02:47:34;;;;;;;8.55;2.08;;;;;;;10.84;100.00;98852.53;5048197;28;20032;-56
2023/03/14 02:50:06;;;;;;;10.55;2.22;;;;;;;10.85;100.00;98839.25;5048685;28;20082;-55
2023/03/14 02:52:31;;;;;;;17.55;2.72;;;;;;;10.75;100.00;98827.66;5025774;28;20223;-54
2023/03/14 02:54:56;;;;;;;13.52;2.63;;;;;;;10.68;100.00;98836.88;5027927;28;20497;-55
2023/03/14 02:57:22;;;;;;;18.52;3.05;;;;;;;10.67;100.00;98835.22;5039715;28;20377;-56
2023/03/14 02:59:47;;;;;;;13.45;2.55;;;;;;;10.51;100.00;98828.34;5047409;28;20029;-53
2023/03/14 03:02:12;;;;;;;18.55;2.58;;;;;;;10.50;100.00;98837.16;5047338;28;20061;-56
2023/03/14 03:04:37;;;;;;;18.25;2.42;;;;;;;10.51;100.00;98830.97;5048445;28;20107;-55
2023/03/14 03:07:03;;;;;;;9.20;2.75;;;;;;;10.55;100.00;98824.56;5047722;28;20560;-56
2023/03/14 03:09:28;;;;;;;15.07;2.67;;;;;;;10.65;100.00;98816.03;5046951;28;20041;-56
2023/03/14 03:11:53;;;;;;;9.02;2.00;;;;;;;10.55;100.00;98819.28;5045123;28;20367;-54
2023/03/14 03:14:19;;;;;;;12.45;3.03;;;;;;;10.56;100.00;98825.38;5047459;28;20053;-54
2023/03/14 03:16:45;;;;;;;14.60;2.70;;;;;;;10.66;100.00;98813.31;5046155;28;20072;-57
2023/03/14 03:19:13;;;;;;;12.50;2.47;;;;;;;10.58;100.00;98818.22;5046030;28;20158;-54
2023/03/14 03:21:38;;;;;;;15.90;2.53;;;;;;;10.58;100.00;98818.22;5047497;28;20029;-60
2023/03/14 03:24:04;;;;;;;11.23;2.25;;;;;;;10.65;100.00;98818.69;5047462;28;20025;-56
2023/03/14 03:26:29;;;;;;;18.05;3.00;;;;;;;10.59;100.00;98810.22;5046815;28;20033;-58
2023/03/14 03:28:54;;;;;;;16.27;2.63;;;;;;;10.53;100.00;98813.25;5047658;28;20028;-58
2023/03/14 03:31:20;;;;;;;21.55;3.00;;;;;;;10.61;100.00;98808.34;5047159;28;20035;-56
2023/03/14 03:33:45;;;;;;;11.50;2.30;;;;;;;10.58;100.00;98816.44;5047024;28;20033;-55
2023/03/14 03:36:10;;;;;;;18.10;2.55;;;;;;;10.65;100.00;98816.03;5047426;28;20104;-56
2023/03/14 03:38:36;;;;;;;11.50;2.03;;;;;;;10.56;100.00;98802.53;5047224;28;20033;-56
2023/03/14 03:41:05;;;;;;;21.00;2.85;;;;;;;10.60;100.00;98800.53;5044778;28;20037;-57
2023/03/14 03:43:30;;;;;;;16.65;2.65;;;;;;;10.51;100.00;98807.28;5046981;28;20029;-59
2023/03/14 03:45:56;;;;;;;16.02;2.42;;;;;;;10.55;100.00;98806.13;5046239;28;20082;-58
2023/03/14 03:48:21;;;;;;;14.68;2.70;;;;;;;10.61;100.00;98796.97;5043765;28;20028;-53
2023/03/14 03:50:47;;;;;;;13.90;2.17;;;;;;;10.63;100.00;98807.38;5046407;28;20033;-56
2023/03/14 03:53:12;;;;;;;13.80;2.75;;;;;;;10.61;100.00;98800.44;5045931;28;20037;-55
2023/03/14 03:55:40;;;;;;;16.27;2.92;;;;;;;10.63;100.00;98791.59;5045861;28;20533;-56
2023/03/14 03:58:06;;;;;;;16.40;2.47;;;;;;;10.64;100.00;98809.06;5027492;28;20087;-50
2023/03/14 04:00:32;;;;;;;12.80;2.95;;;;;;;10.63;100.00;98800.34;5042002;28;20283;-55
2023/03/14 04:02:59;;;;;;;14.10;2.88;;;;;;;10.67;100.00;98808.88;5027096;28;20410;-56
2023/03/14 04:05:24;;;;;;;14.88;2.60;;;;;;;10.68;100.00;98815.81;5047044;28;20431;-57
2023/03/14 04:07:49;;;;;;;16.83;2.83;;;;;;;10.68;100.00;98810.53;5046358;28;20049;-54
2023/03/14 04:10:15;;;;;;;13.32;2.97;;;;;;;10.63;100.00;98802.97;5046983;28;20036;-60
2023/03/14 04:12:40;;;;;;;20.00;3.40;;;;;;;10.67;100.00;98803.59;5028983;28;20112;-58
2023/03/14 04:15:06;;;;;;;13.18;2.92;;;;;;;10.72;100.00;98806.78;5047564;28;20025;-54
2023/03/14 04:17:31;;;;;;;13.50;2.70;;;;;;;10.70;100.00;98798.13;5045768;28;20037;-54
2023/03/14 04:19:57;;;;;;;10.85;1.98;;;;;;;10.76;100.00;98823.22;5029571;28;20060;-57
2023/03/14 04:22:22;;;;;;;13.02;2.40;;;;;;;10.64;100.00;98806.44;5034763;28;20025;-56
2023/03/14 04:24:47;;;;;;;9.05;2.42;;;;;;;10.52;100.00;98806.31;5042338;28;20059;-55
2023/03/14 04:27:14;;;;;;;13.00;2.08;;;;;;;10.42;100.00;98810.47;5027453;28;20062;-56
2023/03/14 04:29:40;;;;;;;16.52;2.60;;;;;;;10.30;100.00;98818.22;5042351;28;20626;-55
2023/03/14 04:32:05;;;;;;;12.63;2.45;;;;;;;10.32;100.00;98807.59;5042800;28;20548;-55
2023/03/14 04:34:30;;;;;;;15.45;2.58;;;;;;;10.28;100.00;98808.75;5046203;28;20056;-55
2023/03/14 04:36:55;;;;;;;11.68;2.67;;;;;;;10.24;100.00;98808.13;5047169;28;20441;-57
2023/03/14 04:39:21;;;;;;;14.30;2.67;;;;;;;10.21;100.00;98801.22;5028328;28;20025;-58
2023/03/14 04:41:46;;;;;;;14.65;2.55;;;;;;;10.21;100.00;98798.59;5036450;28;20036;-56
2023/03/14 04:44:12;;;;;;;17.17;3.53;;;;;;;10.16;100.00;98798.06;5045865;28;20385;-57
2023/03/14 04:46:37;;;;;;;11.35;2.47;;;;;;;10.16;100.00;98792.81;5045830;28;20021;-57
2023/03/14 04:49:02;;;;;;;12.38;2.53;;;;;;;10.17;100.00;98796.31;5045949;28;20086;-54
2023/03/14 04:51:28;;;;;;;13.73;2.88;;;;;;;10.17;100.00;98796.31;5045589;28;20075;-57
2023/03/14 04:53:54;;;;;;;10.15;2.88;;;;;;;10.12;100.00;98804.50;5045351;28;20041;-54
2023/03/14 04:56:19;;;;;;;9.93;2.40;;;;;;;10.09;100.00;98796.78;5045197;28;20027;-56
2023/03/14 04:58:45;;;;;;;10.18;2.50;;;;;;;10.09;100.00;98787.09;5046136;28;20112;-55
2023/03/14 05:01:10;;;;;;;26.58;4.57;;;;;;;10.06;100.00;98787.28;5045980;28;20021;-54
2023/03/14 05:03:37;;;;;;;14.13;3.30;;;;;;;10.04;100.00;98791.81;5045999;28;20025;-55
2023/03/14 05:06:03;;;;;;;6.97;1.95;;;;;;;9.99;100.00;98801.78;5045905;28;20029;-56
2023/03/14 05:08:29;;;;;;;9.90;2.33;;;;;;;9.90;100.00;98789.25;5046052;28;20061;-56
2023/03/14 05:10:55;;;;;;;13.70;2.17;;;;;;;9.96;100.00;98799.34;5044698;28;20044;-56
2023/03/14 05:13:21;;;;;;;9.77;3.20;;;;;;;9.86;100.00;98780.69;5044992;28;20056;-58
2023/03/14 05:15:46;;;;;;;11.77;3.13;;;;;;;9.84;100.00;98786.06;5045033;28;20104;-56
2023/03/14 05:18:11;;;;;;;16.35;2.35;;;;;;;9.83;100.00;98788.78;5022174;28;20033;-56
2023/03/14 05:20:37;;;;;;;10.63;2.63;;;;;;;9.82;100.00;98785.28;5036983;28;20044;-58
2023/03/14 05:23:02;;;;;;;13.02;2.85;;;;;;;9.82;100.00;98781.84;5042400;28;20029;-55
2023/03/14 05:25:27;;;;;;;9.50;2.70;;;;;;;9.82;100.00;98782.66;5032167;28;20029;-55
2023/03/14 05:27:54;;;;;;;10.85;3.03;;;;;;;9.77;100.00;98778.66;5040609;28;20035;-57
2023/03/14 05:30:20;;;;;;;9.55;3.20;;;;;;;9.74;100.00;98777.06;5033436;28;20052;-55
2023/03/14 05:32:45;;;;;;;10.15;3.67;;;;;;;9.67;100.00;98794.16;5057069;28;20032;-54
2023/03/14 05:35:10;;;;;;;10.55;3.67;;;;;;;9.65;100.00;98799.53;5036913;28;20017;-57
2023/03/14 05:37:36;;;;;;;6.68;3.10;;;;;;;9.77;100.00;98815.47;5038242;28;20037;-52
2023/03/14 05:40:01;;;;;;;7.18;3.45;;;;;;;9.54;100.00;98847.53;5040698;28;20029;-56
2023/03/14 05:42:26;;;;;;;9.52;1.88;;;;;;;9.40;100.00;98851.00;5037656;28;20100;-54
2023/03/14 05:44:52;;;;;;;11.15;1.98;;;;;;;9.21;100.00;98888.03;5042713;28;20553;-52
2023/03/14 05:47:17;;;;;;;6.07;1.40;;;;;;;8.93;100.00;98906.31;5028768;28;20449;-55
2023/03/14 05:49:42;;;;;;;7.15;1.45;;;;;;;8.59;100.00;98890.72;5041052;28;20060;-53
2023/03/14 05:52:08;;;;;;;11.18;1.40;;;;;;;8.39;100.00;98893.56;5050481;28;20017;-50
2023/03/14 05:54:33;;;;;;;16.00;2.20;;;;;;;8.27;100.00;98892.47;5050115;28;20473;-53
2023/03/14 05:56:59;;;;;;;11.57;2.88;;;;;;;8.17;100.00;98902.66;5040786;28;20440;-55
2023/03/14 05:59:24;;;;;;;6.55;0.80;;;;;;;8.18;100.00;98899.09;5044679;28;20540;-56
2023/03/14 06:01:49;;;;;;;8.23;1.27;;;;;;;8.12;100.00;98917.81;5036393;28;20736;-53
2023/03/14 06:04:14;;;;;;;6.18;1.45;;;;;;;8.13;100.00;98920.31;5048426;28;20434;-54
2023/03/14 06:06:40;;;;;;;7.03;1.30;;;;;;;7.96;100.00;98932.59;5045901;28;20025;-50
2023/03/14 06:09:05;;;;;;;4.63;1.02;;;;;;;7.86;100.00;98922.69;5034547;28;20060;-55
2023/03/14 06:11:31;;;;;;;8.95;1.60;;;;;;;7.79;100.00;98930.88;5039691;28;20128;-54
2023/03/14 06:13:56;;;;;;;10.52;1.90;;;;;;;7.86;100.00;98946.28;5038190;28;20109;-50
2023/03/14 06:16:21;;;;;;;10.35;1.45;;;;;;;7.90;100.00;98947.81;5022936;28;20021;-51
2023/03/14 06:18:48;;;;;;;11.25;1.42;;;;;;;7.91;100.00;98946.88;5042207;28;20033;-52
2023/03/14 06:21:14;;;;;;;4.28;1.10;;;;;;;7.88;100.00;98945.25;5047520;28;20044;-52
2023/03/14 06:23:39;;;;;;;8.82;1.35;;;;;;;7.87;100.00;98959.31;5049491;28;20036;-51
2023/03/14 06:26:05;;;;;;;9.27;1.48;;;;;;;7.89;100.00;98969.72;5048778;28;20485;-51
2023/03/14 06:28:31;;;;;;;3.80;1.10;;;;;;;7.79;100.00;98972.81;5045976;28;20405;-49
2023/03/14 06:30:56;;;;;;;11.05;1.40;;;;;;;7.81;100.00;98986.72;5044498;28;20074;-50
2023/03/14 06:33:21;;;;;;;2.55;1.00;;;;;;;7.74;100.00;98981.84;5047809;28;20017;-52
2023/03/14 06:35:47;;;;;;;5.55;1.05;;;;;;;7.66;100.00;98995.34;5048389;28;20082;-53
2023/03/14 06:38:12;;;;;;;6.22;0.93;;;;;;;7.63;100.00;99003.38;5046261;28;20107;-50
2023/03/14 06:40:37;;;;;;;10.38;0.88;;;;;;;7.69;100.00;99008.31;5046391;28;20065;-49
2023/03/14 06:43:02;;;;;;;2.63;0.90;;;;;;;7.71;100.00;99016.97;5046736;28;20029;-53
2023/03/14 06:45:28;;;;;;;6.80;1.02;;;;;;;7.66;100.00;99032.06;5047249;28;20052;-52
2023/03/14 06:47:53;;;;;;;5.70;1.35;;;;;;;7.66;100.00;99042.53;5046384;28;20249;-51
2023/03/14 06:50:18;;;;;;;4.63;1.00;;;;;;;7.69;100.00;99039.78;5044776;28;20025;-49
2023/03/14 06:52:47;;;;;;;9.75;1.02;;;;;;;7.74;100.00;99045.66;5046197;28;20032;-53
2023/03/14 06:55:14;;;;;;;6.47;1.08;;;;;;;7.73;100.00;99061.44;5044752;28;20074;-53
2023/03/14 06:57:39;;;;;;;8.93;1.27;;;;;;;7.72;100.00;99081.56;5047372;28;20074;-51
2023/03/14 07:00:05;;;;;;;6.90;1.35;;;;;;;7.77;100.00;99074.31;5039074;28;20029;-48
2023/03/14 07:02:30;;;;;;;11.50;1.67;;;;;;;7.82;100.00;99082.78;5029157;28;20469;-52
2023/03/14 07:04:56;;;;;;;9.43;1.63;;;;;;;7.92;100.00;99088.41;5040528;28;20029;-51
2023/03/14 07:07:21;;;;;;;3.78;1.08;;;;;;;7.94;100.00;99104.06;5046939;28;20504;-53
2023/03/14 07:09:46;;;;;;;9.77;1.02;;;;;;;7.95;100.00;99104.00;5048054;28;20523;-58
2023/03/14 07:12:12;;;;;;;14.98;1.45;;;;;;;7.88;100.00;99120.97;5047946;28;20039;-53
2023/03/14 07:14:37;;;;;;;8.98;1.60;;;;;;;7.90;100.00;99132.25;5048488;28;20028;-53
2023/03/14 07:17:02;;;;;;;10.45;1.40;;;;;;;7.88;100.00;99136.69;5047916;28;20033;-57
2023/03/14 07:19:28;;;;;;;10.07;2.08;;;;;;;7.91;100.00;99144.41;5047186;28;20119;-54
2023/03/14 07:21:54;;;;;;;15.20;1.65;;;;;;;7.74;100.00;99142.66;5047309;28;20013;-52
2023/03/14 07:24:19;;;;;;;9.50;1.42;;;;;;;7.75;100.00;99160.06;5025253;28;20032;-56
2023/03/14 07:26:44;;;;;;;11.45;1.65;;;;;;;7.76;100.00;99171.38;5026064;28;20017;-56
2023/03/14 07:29:10;;;;;;;10.32;1.30;;;;;;;7.88;100.00;99185.66;5033312;28;20041;-53
2023/03/14 07:31:35;;;;;;;8.32;1.02;;;;;;;7.83;100.00;99189.38;5046153;28;20035;-53
2023/03/14 07:34:00;;;;;;;8.13;1.25;;;;;;;7.91;100.00;99190.75;5045163;28;20440;-55
2023/03/14 07:36:26;;;;;;;8.52;1.17;;;;;;;8.03;100.00;99198.03;5045895;28;20029;-51
2023/03/14 07:38:52;;;;;;;9.88;1.30;;;;;;;8.03;100.00;99207.66;5043383;28;20473;-54
2023/03/14 07:41:17;;;;;;;13.60;1.58;;;;;;;7.97;100.00;99222.81;5044487;28;20021;-51
2023/03/14 07:43:43;;;;;;;20.45;1.80;;;;;;;7.82;100.00;99234.03;5045143;28;20036;-55
2023/03/14 07:46:08;;;;;;;7.35;1.17;;;;;;;7.64;100.00;99267.22;5046845;28;20025;-59
2023/03/14 07:48:33;;;;;;;5.95;0.80;;;;;;;7.36;100.00;99271.13;5031522;28;20099;-53
2023/03/14 07:50:59;;;;;;;5.82;1.02;;;;;;;7.32;100.00;99280.91;5045246;28;20033;-54
2023/03/14 07:53:24;;;;;;;7.82;1.42;;;;;;;7.27;100.00;99298.59;5044541;28;20036;-54
2023/03/14 07:55:51;;;;;;;9.73;1.67;;;;;;;6.79;100.00;99298.91;5042453;28;20090;-53
2023/03/14 07:58:16;;;;;;;6.43;1.17;;;;;;;6.88;100.00;99310.75;5045581;28;20392;-54
2023/03/14 08:00:43;;;;;;;16.67;2.13;;;;;;;6.91;100.00;99334.19;5045117;28;20036;-55
2023/03/14 08:03:08;;;;;;;11.10;1.80;;;;;;;6.77;100.00;99340.03;5046092;28;20052;-55
2023/03/14 08:05:35;;;;;;;14.52;1.98;;;;;;;6.68;100.00;99334.25;5039333;28;20449;-52
2023/03/14 08:08:00;;;;;;;9.85;2.10;;;;;;;6.56;100.00;99356.56;5025474;28;20048;-54
2023/03/14 08:10:26;;;;;;;9.93;2.17;;;;;;;6.49;100.00;99365.56;5029574;28;20090;-57
2023/03/14 08:12:54;;;;;;;5.22;1.40;;;;;;;6.45;100.00;99366.63;5043011;28;20029;-54
2023/03/14 08:15:20;;;;;;;14.02;2.03;;;;;;;6.44;100.00;99383.22;5027761;28;20056;-56
2023/03/14 08:17:50;;;;;;;7.45;1.60;;;;;;;6.55;100.00;99388.03;5046993;28;20060;-53
2023/03/14 08:20:19;;;;;;;6.88;2.00;;;;;;;6.46;100.00;99404.94;5045215;28;20036;-54
2023/03/14 08:22:44;;;;;;;9.63;1.50;;;;;;;6.65;100.00;99418.16;5024634;28;20029;-54
2023/03/14 08:25:10;;;;;;;7.97;1.45;;;;;;;6.89;100.00;99423.28;5043743;28;20359;-56
2023/03/14 08:27:37;;;;;;;4.07;1.58;;;;;;;6.90;100.00;99435.50;5044446;28;20469;-55
2023/03/14 08:30:04;;;;;;;4.05;1.08;;;;;;;6.93;100.00;99458.06;5044294;28;20495;-54
2023/03/14 08:32:29;;;;;;;7.22;1.40;;;;;;;6.94;100.00;99467.63;5044618;28;20103;-54
2023/03/14 08:34:55;;;;;;;8.05;1.15;;;;;;;7.24;100.00;99479.50;5044673;28;20461;-58
2023/03/14 08:37:20;;;;;;;4.82;1.13;;;;;;;7.20;100.00;99507.63;5043984;28;20112;-55
2023/03/14 08:39:46;;;;;;;4.07;0.80;;;;;;;6.92;100.00;99500.88;5044632;28;20029;-58
2023/03/14 08:42:11;;;;;;;3.70;1.10;;;;;;;6.86;100.00;99516.84;5043922;28;20028;-59
2023/03/14 08:44:37;;;;;;;6.60;1.25;;;;;;;6.76;100.00;99530.28;5045498;28;20056;-55
2023/03/14 08:47:03;;;;;;;5.22;1.00;;;;;;;6.97;100.00;99538.22;5036377;28;20021;-55
2023/03/14 08:49:28;;;;;;;8.32;1.60;;;;;;;6.95;100.00;99550.50;5033294;28;20087;-54
2023/03/14 08:51:53;;;;;;;6.60;1.73;;;;;;;6.87;100.00;99556.06;5043908;28;20033;-50
2023/03/14 08:54:19;;;;;;;8.73;1.25;;;;;;;6.88;100.00;99573.47;5040911;28;20045;-53
2023/03/14 08:56:44;;;;;;;11.48;2.00;;;;;;;7.03;100.00;99573.78;5043507;28;20013;-54
2023/03/14 08:59:10;;;;;;;9.45;2.00;;;;;;;7.11;100.00;99584.81;5044364;28;20370;-56
2023/03/14 09:01:36;;;;;;;8.48;1.70;;;;;;;7.11;100.00;99590.06;5049102;28;20021;-54
2023/03/14 09:04:01;;;;;;;13.90;2.40;;;;;;;7.37;100.00;99592.53;5048994;28;20135;-55
2023/03/14 09:06:27;;;;;;;18.05;3.30;;;;;;;7.38;100.00;99602.09;5047762;28;20063;-54
2023/03/14 09:08:52;;;;;;;7.13;2.15;;;;;;;7.80;100.00;99606.47;5049189;28;20398;-57
2023/03/14 09:11:18;;;;;;;13.70;2.63;;;;;;;7.81;100.00;99623.94;5046888;28;20083;-57
2023/03/14 09:13:43;;;;;;;16.35;3.08;;;;;;;7.86;100.00;99633.38;5044553;28;20029;-57
2023/03/14 09:16:09;;;;;;;16.77;2.72;;;;;;;7.99;100.00;99638.94;5043203;28;20024;-55
2023/03/14 09:18:35;;;;;;;14.27;2.40;;;;;;;7.94;100.00;99649.63;5048576;28;20061;-52
2023/03/14 09:21:01;;;;;;;17.02;2.60;;;;;;;8.01;100.00;99663.34;5044996;28;20488;-55
2023/03/14 09:23:26;;;;;;;19.33;2.92;;;;;;;7.77;100.00;99666.09;5038106;28;20040;-55
2023/03/14 09:25:56;;;;;;;18.80;2.92;;;;;;;7.39;100.00;99685.91;5047313;28;20029;-56
2023/03/14 09:28:22;;;;;;;29.30;4.40;;;;;;;7.71;100.00;99696.03;5047226;28;20049;-56
2023/03/14 09:30:47;;;;;;;24.65;2.60;;;;;;;7.66;100.00;99705.84;5032625;28;20060;-51
2023/03/14 09:33:12;;;;;;;14.82;3.00;;;;;;;7.85;100.00;99711.19;5049225;28;20051;-53
2023/03/14 09:35:38;;;;;;;17.50;2.92;;;;;;;7.94;100.00;99731.81;5048482;28;20040;-56
2023/03/14 09:38:03;;;;;;;20.58;3.55;;;;;;;7.51;100.00;99744.88;5038899;28;20405;-52
2023/03/14 09:40:34;;;;;;;19.85;2.85;;;;;;;7.11;100.00;99767.31;5047122;28;20477;-58
2023/03/14 09:42:59;;;;;;;13.23;2.67;;;;;;;6.90;100.00;99775.06;5048440;28;20043;-56
2023/03/14 09:45:36;;;;;;;22.60;3.30;;;;;;;6.85;100.00;99776.97;5047704;28;20096;-57
2023/03/14 09:48:03;;;;;;;29.50;3.25;;;;;;;7.04;100.00;99793.75;5045611;28;20179;-57
2023/03/14 09:50:49;;;;;;;21.05;3.80;;;;;;;6.92;100.00;99779.31;5045466;28;20713;-60
2023/03/14 09:53:18;;;;;;;25.10;3.40;;;;;;;7.16;100.00;99794.19;5044667;28;20025;-58
2023/03/14 09:55:45;;;;;;;15.68;2.50;;;;;;;6.91;100.00;99790.72;5025861;28;20037;-51
2023/03/14 09:58:19;;;;;;;18.40;2.83;;;;;;;6.83;100.00;99800.59;5029442;28;20029;-55
2023/03/14 10:00:44;;;;;;;18.05;2.40;;;;;;;6.88;100.00;99800.44;5048625;28;20036;-56
2023/03/14 10:03:33;;;;;;;17.50;2.97;;;;;;;7.11;100.00;99819.72;5049188;28;20029;-57
2023/03/14 10:05:59;;;;;;;28.08;3.00;;;;;;;7.39;100.00;99826.56;5036324;28;20065;-57
2023/03/14 10:08:25;;;;;;;16.42;3.00;;;;;;;7.70;100.00;99856.88;5046582;28;20064;-56
2023/03/14 10:10:50;;;;;;;19.00;3.83;;;;;;;8.02;100.00;99851.31;5046205;28;20687;-57
2023/03/14 10:13:33;;;;;;;23.40;3.65;;;;;;;8.19;100.00;99867.25;5040765;28;20025;-56
2023/03/14 10:16:07;;;;;;;29.48;3.55;;;;;;;8.26;100.00;99875.75;5028213;28;20021;-55
2023/03/14 10:18:36;;;;;;;15.07;2.33;;;;;;;8.39;100.00;99872.59;5031132;28;20429;-57
2023/03/14 10:21:17;;;;;;;24.23;3.25;;;;;;;8.61;100.00;99887.53;5047788;28;20033;-55
2023/03/14 10:23:42;;;;;;;25.17;3.60;;;;;;;8.53;100.00;99907.06;5048192;28;20021;-56
2023/03/14 10:26:13;;;;;;;27.73;4.32;;;;;;;8.26;100.00;99911.63;5046835;28;20028;-53
2023/03/14 10:28:51;;;;;;;24.13;4.00;;;;;;;8.06;100.00;99935.09;5047381;28;20033;-59
2023/03/14 10:31:17;;;;;;;15.65;3.25;;;;;;;7.94;100.00;99935.53;5045583;28;20507;-55
2023/03/14 10:33:57;;;;;;;25.15;4.05;;;;;;;8.18;100.00;99948.66;5047401;28;20025;-61
2023/03/14 10:36:26;;;;;;;20.30;3.28;;;;;;;8.20;100.00;99952.94;5043212;28;20527;-58
2023/03/14 10:39:17;;;;;;;25.17;3.70;;;;;;;8.22;100.00;99964.22;5029845;28;20071;-56
2023/03/14 10:41:48;;;;;;;22.48;3.83;;;;;;;8.46;100.00;99981.72;5037648;28;20053;-55
2023/03/14 10:44:14;;;;;;;24.92;4.10;;;;;;;8.55;99.37;99984.00;5046584;28;20017;-57
2023/03/14 10:46:39;;;;;;;27.27;3.78;;;;;;;8.26;99.84;99988.59;5028048;28;20025;-58
2023/03/14 10:49:06;;;;;;;20.17;3.38;;;;;;;8.13;95.52;99997.84;5047195;28;20021;-58
2023/03/14 10:51:31;;;;;;;21.80;3.20;;;;;;;8.40;94.92;100006.44;5045598;28;20404;-57
2023/03/14 10:54:20;;;;;;;26.88;3.13;;;;;;;8.12;94.16;100023.22;5045251;28;20074;-55
2023/03/14 10:56:59;;;;;;;31.23;3.15;;;;;;;7.75;92.57;100012.31;5040222;28;20036;-59
2023/03/14 10:59:27;;;;;;;24.05;3.20;;;;;;;8.16;92.48;100026.59;5032856;28;20036;-58
2023/03/14 11:02:34;;;;;;;18.50;3.40;;;;;;;8.09;91.95;100039.94;5024037;28;20437;-58
2023/03/14 11:05:30;;;;;;;26.25;4.65;;;;;;;8.31;93.65;100051.41;5004578;28;20029;-56
2023/03/14 11:08:11;;;;;;;18.73;3.05;;;;;;;8.69;91.33;100074.53;5021236;28;20084;-56
2023/03/14 11:10:43;;;;;;;22.27;2.70;;;;;;;8.77;86.37;100082.13;5024787;28;20137;-53
2023/03/14 11:13:33;;;;;;;14.77;2.72;;;;;;;8.55;84.29;100083.78;5017526;28;20026;-56
2023/03/14 11:16:13;;;;;;;22.70;2.97;;;;;;;8.21;88.16;100090.25;5020465;28;20030;-57
2023/03/14 11:18:51;;;;;;;18.10;2.58;;;;;;;8.40;87.60;100118.47;5022209;28;20041;-55
2023/03/14 11:21:25;;;;;;;13.18;2.78;;;;;;;8.33;86.21;100123.94;5024351;28;20369;-56
2023/03/14 11:24:05;;;;;;;15.13;2.40;;;;;;;8.30;87.02;100124.06;5023447;28;20033;-55
2023/03/14 11:26:48;;;;;;;19.65;2.85;;;;;;;8.34;83.73;100133.53;5026099;28;20489;-56